ACA7031 KMSP-KPIE
Flight info
| Callsign | ACA7031 |
|---|---|
| Flight time | N/A |
| Altitude | 39000 |
| Route | RST1 ALO STL J151 GETME VLKNN MGMRY ACORI BANGZ2 |
| Aircraft | A320/M-SDE3FGHIRWY/LB1 |
Departure
| Time | 2026-05-04 22:29 |
|---|---|
| Airport | Minneapolis–Saint Paul International Airport / Wold–Chamberlain Field (KMSP) |
Arrival
| Time | N/A |
|---|---|
| Airport | St. Petersburg Clearwater International Airport (KPIE) |
| Time | Latitude | Longitude | Altitude | Speed | Heading |
|---|---|---|---|---|---|
| 2026-05-04 22:07 | 44.87794 | -93.22019 | 825 ft | 0 kts | 180° |
| 2026-05-04 22:22 | 44.87793 | -93.22019 | 825 ft | 0 kts | 180° |
| 2026-05-04 22:22 | 44.87786 | -93.22016 | 825 ft | 2 kts | 165° |
| 2026-05-04 22:23 | 44.87774 | -93.21994 | 825 ft | 4 kts | 113° |
| 2026-05-04 22:23 | 44.87772 | -93.21957 | 825 ft | 4 kts | 91° |
| 2026-05-04 22:23 | 44.87772 | -93.21904 | 825 ft | 7 kts | 89° |
| 2026-05-04 22:23 | 44.87773 | -93.21825 | 825 ft | 9 kts | 90° |
| 2026-05-04 22:24 | 44.87783 | -93.21727 | 825 ft | 11 kts | 75° |
| 2026-05-04 22:24 | 44.87818 | -93.21634 | 825 ft | 10 kts | 47° |
| 2026-05-04 22:24 | 44.87848 | -93.21561 | 822 ft | 7 kts | 106° |
| 2026-05-04 22:24 | 44.87814 | -93.21485 | 825 ft | 11 kts | 121° |
| 2026-05-04 22:25 | 44.87767 | -93.21376 | 822 ft | 15 kts | 122° |
| 2026-05-04 22:25 | 44.87716 | -93.21259 | 821 ft | 13 kts | 122° |
| 2026-05-04 22:25 | 44.87672 | -93.21158 | 825 ft | 12 kts | 121° |
| 2026-05-04 22:25 | 44.87619 | -93.21036 | 823 ft | 16 kts | 121° |
| 2026-05-04 22:26 | 44.87563 | -93.20908 | 825 ft | 15 kts | 122° |
| 2026-05-04 22:26 | 44.87513 | -93.20791 | 825 ft | 14 kts | 120° |
| 2026-05-04 22:26 | 44.87454 | -93.20697 | 825 ft | 12 kts | 143° |
| 2026-05-04 22:26 | 44.87380 | -93.20618 | 824 ft | 16 kts | 131° |
| 2026-05-04 22:27 | 44.87315 | -93.20481 | 824 ft | 16 kts | 123° |
| 2026-05-04 22:27 | 44.87259 | -93.20356 | 825 ft | 14 kts | 122° |
| 2026-05-04 22:27 | 44.87235 | -93.20240 | 826 ft | 11 kts | 52° |
| 2026-05-04 22:27 | 44.87294 | -93.20187 | 824 ft | 10 kts | 31° |
| 2026-05-04 22:28 | 44.87348 | -93.20144 | 827 ft | 8 kts | 20° |
| 2026-05-04 22:28 | 44.87374 | -93.20168 | 827 ft | 4 kts | 301° |
| 2026-05-04 22:28 | 44.87414 | -93.20260 | 825 ft | 29 kts | 302° |
| 2026-05-04 22:28 | 44.87648 | -93.20804 | 827 ft | 97 kts | 301° |
| 2026-05-04 22:29 | 44.88100 | -93.21849 | 878 ft | 144 kts | 302° |
| 2026-05-04 22:29 | 44.88612 | -93.23043 | 1604 ft | 140 kts | 300° |
| 2026-05-04 22:29 | 44.89113 | -93.24262 | 2187 ft | 156 kts | 300° |
| 2026-05-04 22:29 | 44.89701 | -93.25708 | 2533 ft | 182 kts | 299° |
| 2026-05-04 22:30 | 44.90029 | -93.27538 | 2948 ft | 210 kts | 268° |
| 2026-05-04 22:30 | 44.89476 | -93.29589 | 3427 ft | 244 kts | 238° |
| 2026-05-04 22:30 | 44.88079 | -93.31117 | 4215 ft | 267 kts | 207° |
| 2026-05-04 22:30 | 44.86245 | -93.31860 | 4931 ft | 276 kts | 199° |
| 2026-05-04 22:31 | 44.84402 | -93.32532 | 5916 ft | 277 kts | 200° |
| 2026-05-04 22:31 | 44.82467 | -93.32888 | 6864 ft | 288 kts | 180° |
| 2026-05-04 22:31 | 44.80502 | -93.32108 | 7769 ft | 303 kts | 157° |
| 2026-05-04 22:31 | 44.78631 | -93.30650 | 8679 ft | 309 kts | 156° |
| 2026-05-04 22:32 | 44.76737 | -93.29132 | 9531 ft | 316 kts | 156° |
| 2026-05-04 22:32 | 44.74808 | -93.27577 | 10283 ft | 324 kts | 157° |
| 2026-05-04 22:32 | 44.72801 | -93.25975 | 10597 ft | 347 kts | 157° |
| 2026-05-04 22:32 | 44.70654 | -93.24268 | 11173 ft | 359 kts | 158° |
| 2026-05-04 22:33 | 44.68466 | -93.22523 | 11947 ft | 364 kts | 158° |
| 2026-05-04 22:33 | 44.66248 | -93.20752 | 12743 ft | 368 kts | 158° |
| 2026-05-04 22:33 | 44.64009 | -93.18966 | 13534 ft | 372 kts | 159° |
| 2026-05-04 22:33 | 44.61739 | -93.17193 | 14229 ft | 374 kts | 161° |
| 2026-05-04 22:34 | 44.59418 | -93.15502 | 14937 ft | 376 kts | 162° |
| 2026-05-04 22:34 | 44.57059 | -93.13863 | 15597 ft | 379 kts | 163° |
| 2026-05-04 22:34 | 44.54670 | -93.12237 | 16268 ft | 383 kts | 163° |
| 2026-05-04 22:34 | 44.52288 | -93.10619 | 16941 ft | 387 kts | 163° |
| 2026-05-04 22:35 | 44.49848 | -93.08953 | 17615 ft | 391 kts | 163° |
| 2026-05-04 22:35 | 44.47390 | -93.07261 | 18248 ft | 395 kts | 163° |
| 2026-05-04 22:35 | 44.44916 | -93.05546 | 18845 ft | 398 kts | 163° |
| 2026-05-04 22:35 | 44.42425 | -93.03810 | 19465 ft | 400 kts | 163° |
| 2026-05-04 22:36 | 44.39927 | -93.02069 | 20090 ft | 403 kts | 163° |
| 2026-05-04 22:36 | 44.37406 | -93.00310 | 20671 ft | 405 kts | 163° |
| 2026-05-04 22:36 | 44.34903 | -92.98568 | 21277 ft | 408 kts | 163° |
| 2026-05-04 22:36 | 44.32339 | -92.96790 | 21888 ft | 411 kts | 163° |
| 2026-05-04 22:37 | 44.29771 | -92.95012 | 22500 ft | 413 kts | 163° |
| 2026-05-04 22:37 | 44.27190 | -92.93226 | 23098 ft | 416 kts | 163° |
| 2026-05-04 22:37 | 44.24586 | -92.91425 | 23613 ft | 418 kts | 163° |
| 2026-05-04 22:37 | 44.21995 | -92.89631 | 24088 ft | 421 kts | 163° |
| 2026-05-04 22:38 | 44.19324 | -92.87783 | 24557 ft | 424 kts | 163° |
| 2026-05-04 22:38 | 44.16701 | -92.85972 | 24965 ft | 427 kts | 163° |
| 2026-05-04 22:38 | 44.14028 | -92.84128 | 25410 ft | 430 kts | 163° |
| 2026-05-04 22:38 | 44.11338 | -92.82274 | 25842 ft | 432 kts | 163° |
| 2026-05-04 22:39 | 44.08625 | -92.80405 | 26250 ft | 436 kts | 163° |
| 2026-05-04 22:39 | 44.05897 | -92.78534 | 26657 ft | 438 kts | 163° |
| 2026-05-04 22:39 | 44.03178 | -92.76676 | 27065 ft | 441 kts | 163° |
| 2026-05-04 22:39 | 44.00411 | -92.74784 | 27469 ft | 444 kts | 163° |
| 2026-05-04 22:40 | 43.97619 | -92.72873 | 27830 ft | 447 kts | 162° |
| 2026-05-04 22:40 | 43.94823 | -92.70961 | 28235 ft | 449 kts | 162° |
| 2026-05-04 22:40 | 43.92032 | -92.69054 | 28603 ft | 452 kts | 162° |
| 2026-05-04 22:40 | 43.89200 | -92.67121 | 28976 ft | 454 kts | 162° |
| 2026-05-04 22:41 | 43.86353 | -92.65185 | 29359 ft | 457 kts | 162° |
| 2026-05-04 22:41 | 43.83491 | -92.63241 | 29720 ft | 459 kts | 162° |
| 2026-05-04 22:41 | 43.80635 | -92.61342 | 30015 ft | 458 kts | 166° |
| 2026-05-04 22:41 | 43.77657 | -92.59912 | 30285 ft | 450 kts | 174° |
| 2026-05-04 22:42 | 43.74618 | -92.59084 | 30581 ft | 442 kts | 182° |
| 2026-05-04 22:42 | 43.71566 | -92.58584 | 30863 ft | 443 kts | 182° |
| 2026-05-04 22:42 | 43.68493 | -92.58087 | 31137 ft | 445 kts | 182° |
| 2026-05-04 22:42 | 43.65411 | -92.57589 | 31461 ft | 445 kts | 182° |
| 2026-05-04 22:43 | 43.62330 | -92.57085 | 31849 ft | 444 kts | 182° |
| 2026-05-04 22:43 | 43.59262 | -92.56579 | 32181 ft | 443 kts | 182° |
| 2026-05-04 22:43 | 43.56195 | -92.56070 | 32555 ft | 443 kts | 182° |
| 2026-05-04 22:43 | 43.53175 | -92.55571 | 32924 ft | 442 kts | 182° |
| 2026-05-04 22:44 | 43.50113 | -92.55068 | 33303 ft | 442 kts | 182° |
| 2026-05-04 22:44 | 43.47056 | -92.54569 | 33679 ft | 441 kts | 182° |
| 2026-05-04 22:44 | 43.44001 | -92.54071 | 33994 ft | 441 kts | 183° |
| 2026-05-04 22:44 | 43.40952 | -92.53578 | 34292 ft | 441 kts | 183° |
| 2026-05-04 22:45 | 43.37903 | -92.53088 | 34535 ft | 441 kts | 182° |
| 2026-05-04 22:45 | 43.31824 | -92.52110 | 35077 ft | 442 kts | 182° |
| 2026-05-04 22:45 | 43.28765 | -92.51615 | 35340 ft | 442 kts | 182° |
| 2026-05-04 22:46 | 43.25708 | -92.51119 | 35606 ft | 442 kts | 182° |
| 2026-05-04 22:46 | 43.22641 | -92.50618 | 35872 ft | 442 kts | 182° |
| 2026-05-04 22:46 | 43.19584 | -92.50120 | 36105 ft | 442 kts | 182° |
| 2026-05-04 22:46 | 43.16529 | -92.49626 | 36354 ft | 442 kts | 182° |
| 2026-05-04 22:47 | 43.13464 | -92.49133 | 36606 ft | 442 kts | 182° |
| 2026-05-04 22:47 | 43.10406 | -92.48642 | 36847 ft | 442 kts | 182° |
| 2026-05-04 22:47 | 43.07352 | -92.48150 | 37076 ft | 442 kts | 182° |
| 2026-05-04 22:47 | 43.04292 | -92.47659 | 37301 ft | 442 kts | 182° |
| 2026-05-04 22:48 | 43.01233 | -92.47170 | 37523 ft | 442 kts | 182° |
| 2026-05-04 22:48 | 42.98218 | -92.46683 | 37707 ft | 442 kts | 182° |
| 2026-05-04 22:48 | 42.95159 | -92.46188 | 37926 ft | 441 kts | 182° |
| 2026-05-04 22:48 | 42.92106 | -92.45694 | 38133 ft | 441 kts | 182° |
| 2026-05-04 22:49 | 42.89054 | -92.45202 | 38330 ft | 441 kts | 182° |
| 2026-05-04 22:49 | 42.85994 | -92.44709 | 38455 ft | 441 kts | 182° |
| 2026-05-04 22:49 | 42.82977 | -92.44224 | 38596 ft | 441 kts | 182° |
| 2026-05-04 22:49 | 42.79926 | -92.43741 | 38647 ft | 442 kts | 182° |
| 2026-05-04 22:50 | 42.73798 | -92.42775 | 38652 ft | 443 kts | 182° |
| 2026-05-04 22:50 | 42.67670 | -92.41805 | 38654 ft | 443 kts | 182° |
| 2026-05-04 22:51 | 42.61543 | -92.40833 | 38655 ft | 443 kts | 182° |
| 2026-05-04 22:51 | 42.55443 | -92.39570 | 38654 ft | 453 kts | 172° |
| 2026-05-04 22:52 | 42.49462 | -92.36485 | 38656 ft | 461 kts | 166° |
| 2026-05-04 22:52 | 42.43521 | -92.33217 | 38656 ft | 461 kts | 166° |
| 2026-05-04 22:53 | 42.37564 | -92.29960 | 38619 ft | 461 kts | 166° |
| 2026-05-04 22:53 | 42.32612 | -92.27261 | 38620 ft | 462 kts | 165° |
| 2026-05-04 22:54 | 42.26644 | -92.24010 | 38628 ft | 462 kts | 165° |
| 2026-05-04 22:54 | 42.20714 | -92.20783 | 38635 ft | 462 kts | 165° |
| 2026-05-04 22:55 | 42.14742 | -92.17514 | 38584 ft | 462 kts | 165° |
| 2026-05-04 22:55 | 42.08769 | -92.14257 | 38587 ft | 463 kts | 165° |
| 2026-05-04 22:56 | 42.02792 | -92.11029 | 38592 ft | 463 kts | 165° |
| 2026-05-04 22:56 | 41.96799 | -92.07801 | 38577 ft | 463 kts | 165° |
| 2026-05-04 22:57 | 41.90818 | -92.04571 | 38581 ft | 464 kts | 165° |
| 2026-05-04 22:57 | 41.84858 | -92.01362 | 38590 ft | 464 kts | 165° |
| 2026-05-04 22:58 | 41.78861 | -91.98141 | 38585 ft | 464 kts | 165° |
| 2026-05-04 22:58 | 41.72856 | -91.94919 | 38562 ft | 464 kts | 165° |
| 2026-05-04 22:59 | 41.66859 | -91.91710 | 38572 ft | 464 kts | 165° |
| 2026-05-04 22:59 | 41.60878 | -91.88514 | 38585 ft | 464 kts | 164° |
| 2026-05-04 23:00 | 41.54866 | -91.85316 | 38608 ft | 464 kts | 164° |
| 2026-05-04 23:00 | 41.48855 | -91.82109 | 38593 ft | 464 kts | 164° |
| 2026-05-04 23:01 | 41.42847 | -91.78916 | 38605 ft | 464 kts | 164° |
| 2026-05-04 23:01 | 41.36867 | -91.75757 | 38620 ft | 465 kts | 164° |
| 2026-05-04 23:02 | 41.30844 | -91.72579 | 38606 ft | 465 kts | 164° |
| 2026-05-04 23:02 | 41.24830 | -91.69396 | 38616 ft | 465 kts | 164° |
| 2026-05-04 23:03 | 41.18848 | -91.66235 | 38621 ft | 465 kts | 164° |
| 2026-05-04 23:03 | 41.12825 | -91.63068 | 38622 ft | 465 kts | 164° |
| 2026-05-04 23:04 | 41.06805 | -91.59914 | 38612 ft | 464 kts | 164° |
| 2026-05-04 23:04 | 41.00818 | -91.56787 | 38620 ft | 465 kts | 164° |
| 2026-05-04 23:05 | 40.94783 | -91.53639 | 38623 ft | 465 kts | 164° |
| 2026-05-04 23:05 | 40.88768 | -91.50502 | 38592 ft | 465 kts | 164° |
| 2026-05-04 23:06 | 40.82771 | -91.47378 | 38598 ft | 465 kts | 164° |
| 2026-05-04 23:06 | 40.76720 | -91.44231 | 38615 ft | 467 kts | 164° |
| 2026-05-04 23:07 | 40.70695 | -91.41109 | 38620 ft | 467 kts | 164° |
| 2026-05-04 23:07 | 40.64634 | -91.37981 | 38626 ft | 467 kts | 164° |
| 2026-05-04 23:08 | 40.58572 | -91.34853 | 38630 ft | 467 kts | 164° |
| 2026-05-04 23:08 | 40.52542 | -91.31740 | 38644 ft | 467 kts | 164° |
| 2026-05-04 23:09 | 40.46482 | -91.28620 | 38622 ft | 467 kts | 164° |
| 2026-05-04 23:09 | 40.40411 | -91.25504 | 38626 ft | 468 kts | 164° |
| 2026-05-04 23:10 | 40.34346 | -91.22392 | 38633 ft | 468 kts | 164° |
| 2026-05-04 23:10 | 40.28312 | -91.19295 | 38639 ft | 468 kts | 164° |
| 2026-05-04 23:11 | 40.22215 | -91.16188 | 38621 ft | 469 kts | 165° |
| 2026-05-04 23:11 | 40.16116 | -91.13093 | 38642 ft | 469 kts | 164° |
| 2026-05-04 23:12 | 40.10067 | -91.10016 | 38668 ft | 468 kts | 164° |
| 2026-05-04 23:12 | 40.03986 | -91.06921 | 38687 ft | 467 kts | 164° |
| 2026-05-04 23:13 | 39.97959 | -91.03869 | 38657 ft | 467 kts | 164° |
| 2026-05-04 23:13 | 39.91887 | -91.00802 | 38663 ft | 468 kts | 165° |
| 2026-05-04 23:14 | 39.85802 | -90.97747 | 38665 ft | 468 kts | 165° |
| 2026-05-04 23:14 | 39.82787 | -90.96227 | 38891 ft | 468 kts | 164° |
| 2026-05-04 23:14 | 39.79745 | -90.94693 | 38886 ft | 468 kts | 165° |
| 2026-05-04 23:15 | 39.76698 | -90.93161 | 38654 ft | 469 kts | 165° |
| 2026-05-04 23:15 | 39.73643 | -90.91626 | 38660 ft | 470 kts | 165° |
| 2026-05-04 23:15 | 39.67536 | -90.88563 | 38672 ft | 470 kts | 165° |
| 2026-05-04 23:16 | 39.61461 | -90.85513 | 38669 ft | 471 kts | 165° |
| 2026-05-04 23:16 | 39.55343 | -90.82459 | 38654 ft | 472 kts | 165° |
| 2026-05-04 23:17 | 39.49206 | -90.79402 | 38662 ft | 473 kts | 165° |
| 2026-05-04 23:17 | 39.43030 | -90.76327 | 38689 ft | 474 kts | 165° |
| 2026-05-04 23:18 | 39.36875 | -90.73265 | 38694 ft | 473 kts | 165° |
| 2026-05-04 23:18 | 39.30739 | -90.70207 | 38669 ft | 473 kts | 166° |
| 2026-05-04 23:19 | 39.24623 | -90.67182 | 38658 ft | 474 kts | 165° |
| 2026-05-04 23:19 | 39.18446 | -90.64143 | 38664 ft | 475 kts | 165° |
| 2026-05-04 23:20 | 39.12272 | -90.61096 | 38670 ft | 475 kts | 165° |
| 2026-05-04 23:20 | 39.06071 | -90.58043 | 38655 ft | 477 kts | 165° |
| 2026-05-04 23:21 | 38.99883 | -90.55010 | 38662 ft | 479 kts | 165° |
| 2026-05-04 23:21 | 38.93643 | -90.51949 | 38667 ft | 480 kts | 165° |
| 2026-05-04 23:22 | 38.87382 | -90.48908 | 38653 ft | 479 kts | 169° |
| 2026-05-04 23:22 | 38.80929 | -90.47135 | 38693 ft | 473 kts | 179° |
| 2026-05-04 23:23 | 38.74452 | -90.45776 | 38696 ft | 474 kts | 179° |
| 2026-05-04 23:23 | 38.67938 | -90.44397 | 38700 ft | 474 kts | 178° |
| 2026-05-04 23:24 | 38.61445 | -90.43021 | 38670 ft | 475 kts | 179° |
| 2026-05-04 23:24 | 38.54898 | -90.41636 | 38687 ft | 476 kts | 179° |
| 2026-05-04 23:25 | 38.48369 | -90.40267 | 38692 ft | 477 kts | 179° |
| 2026-05-04 23:25 | 38.41804 | -90.38892 | 38700 ft | 478 kts | 179° |
| 2026-05-04 23:26 | 38.35270 | -90.37518 | 38723 ft | 478 kts | 178° |
| 2026-05-04 23:26 | 38.28703 | -90.36134 | 38737 ft | 477 kts | 178° |
| 2026-05-04 23:27 | 38.22147 | -90.34769 | 38752 ft | 476 kts | 178° |